.
WxDataArchive / Data Records for 2011-12-16
2011-12-15 December 2011 2011-12-17

Data Records for Friday, 16 December 2011

Time	Temp	Chill	HIndex	Humid	Dewpt	 Wind 	HiWind	WindDir	Rain 	Barom 
-----	----	-----	------	-----	-----	------	------	-------	-----	----- 
00:00	34.7	31.2	34.7	64	23.8	4	11	270	0.00	30.155 
00:05	34.7	34.7	34.7	64	23.8	3	6	270	0.00	30.155 
00:10	34.7	34.7	34.7	64	23.8	3	5	270	0.00	30.155 
00:15	34.7	34.7	34.7	64	23.8	3	5	270	0.00	30.163 
00:20	34.7	34.7	34.7	64	23.8	3	9	248	0.00	30.163 
00:25	34.7	31.2	34.7	63	23.4	4	7	292	0.00	30.163 
00:30	34.7	34.7	34.7	64	23.8	3	7	270	0.00	30.169 
00:35	34.7	34.7	34.7	64	23.8	3	7	270	0.00	30.169 
00:40	34.7	34.7	34.7	65	24.2	2	5	248	0.00	30.169 
00:45	34.6	34.6	34.6	65	24.1	3	6	248	0.00	30.176 
00:50	34.6	34.6	34.6	65	24.1	3	6	248	0.00	30.176 
00:55	34.4	34.4	34.4	65	23.9	2	6	248	0.00	30.176 
01:00	34.1	34.1	34.1	65	23.6	2	5	270	0.00	30.180 
01:05	34.1	34.1	34.1	66	23.9	2	5	270	0.00	30.180 
01:10	34.0	34.0	34.0	66	23.9	2	4	270	0.00	30.180 
01:15	34.1	34.1	34.1	66	23.9	2	4	292	0.00	30.195 
01:20	34.1	34.1	34.1	66	23.9	2	5	248	0.00	30.195 
01:25	34.3	34.3	34.3	66	24.1	3	6	248	0.00	30.195 
01:30	34.3	34.3	34.3	66	24.1	2	5	248	0.00	30.198 
01:35	34.3	34.3	34.3	66	24.1	2	5	270	0.00	30.198 
01:40	34.3	34.3	34.3	66	24.1	3	5	270	0.00	30.198 
01:45	34.3	34.3	34.3	67	24.5	2	5	270	0.00	30.201 
01:50	34.3	34.3	34.3	68	24.9	2	4	270	0.00	30.201 
01:55	34.1	34.1	34.1	68	24.7	2	4	292	0.00	30.201 
02:00	34.1	34.1	34.1	69	25.0	2	5	270	0.00	30.206 
02:05	34.0	34.0	34.0	69	24.9	3	5	270	0.00	30.206 
02:10	33.8	33.8	33.8	69	24.7	2	5	248	0.00	30.206 
02:15	33.8	33.8	33.8	69	24.7	2	5	248	0.00	30.212 
02:20	33.8	33.8	33.8	69	24.7	2	5	315	0.00	30.212 
02:25	33.7	33.7	33.7	70	25.0	2	7	315	0.00	30.212 
02:30	33.8	33.8	33.8	69	24.7	3	4	292	0.00	30.215 
02:35	33.8	33.8	33.8	69	24.7	2	4	270	0.00	30.215 
02:40	33.7	33.7	33.7	69	24.6	1	4	270	0.00	30.215 
02:45	33.7	33.7	33.7	70	25.0	2	6	292	0.00	30.224 
02:50	33.7	33.7	33.7	69	24.6	2	4	270	0.00	30.224 
02:55	33.7	33.7	33.7	69	24.6	1	4	270	0.00	30.224 
03:00	33.7	33.7	33.7	70	25.0	1	3	270	0.00	30.230 
03:05	33.7	33.7	33.7	69	24.6	2	4	270	0.00	30.230 
03:10	33.7	33.7	33.7	70	25.0	2	5	270	0.00	30.230 
03:15	33.7	33.7	33.7	69	24.6	1	4	292	0.00	30.233 
03:20	33.5	33.5	33.5	70	24.8	1	3	292	0.00	30.233 
03:25	33.5	33.5	33.5	70	24.8	1	2	292	0.00	30.233 
03:30	33.4	33.4	33.4	70	24.7	0	3	292	0.00	30.234 
03:35	33.2	33.2	33.2	71	24.8	1	3	338	0.00	30.234 
03:40	33.1	33.1	33.1	71	24.7	0	1	338	0.00	30.234 
03:45	32.9	32.9	32.9	71	24.5	0	2	338	0.00	30.248 
03:50	32.8	32.8	32.8	72	24.8	0	1	338	0.00	30.248 
03:55	32.7	32.7	32.7	72	24.7	0	1	338	0.00	30.248 
04:00	32.5	32.5	32.5	73	24.8	0	1	338	0.00	30.248 
04:05	32.2	32.2	32.2	73	24.5	0	1	338	0.00	30.248 
04:10	32.1	32.1	32.1	74	24.8	0	0	---	0.00	30.248 
04:15	31.9	31.9	31.9	74	24.6	0	1	338	0.00	30.245 
04:20	31.9	31.9	31.9	75	24.9	0	1	338	0.00	30.245 
04:25	31.9	31.9	31.9	75	24.9	0	1	338	0.00	30.245 
04:30	31.9	31.9	31.9	75	24.9	0	0	---	0.00	30.238 
04:35	31.8	31.8	31.8	75	24.8	0	0	---	0.00	30.238 
04:40	31.8	31.8	31.8	76	25.1	0	0	---	0.00	30.238 
04:45	31.8	31.8	31.8	76	25.1	0	0	---	0.00	30.234 
04:50	31.8	31.8	31.8	76	25.1	0	1	338	0.00	30.234 
04:55	31.8	31.8	31.8	77	25.4	0	0	---	0.00	30.234 
05:00	31.9	31.9	31.9	77	25.5	0	0	---	0.00	30.250 
05:05	31.9	31.9	31.9	77	25.5	0	0	---	0.00	30.250 
05:10	31.9	31.9	31.9	77	25.5	0	0	---	0.00	30.250 
05:15	31.9	31.9	31.9	77	25.5	0	0	---	0.00	30.254 
05:20	31.9	31.9	31.9	78	25.8	0	0	---	0.00	30.254 
05:25	31.9	31.9	31.9	78	25.8	0	3	292	0.00	30.254 
05:30	31.9	31.9	31.9	77	25.5	0	1	292	0.00	30.255 
05:35	31.9	31.9	31.9	77	25.5	0	1	292	0.00	30.255 
05:40	31.8	31.8	31.8	76	25.1	0	2	292	0.00	30.255 
05:45	31.8	31.8	31.8	75	24.8	0	1	292	0.00	30.265 
05:50	31.8	31.8	31.8	73	24.1	0	3	292	0.00	30.265 
05:55	31.8	31.8	31.8	71	23.5	0	2	292	0.00	30.265 
06:00	31.8	31.8	31.8	70	23.2	1	4	270	0.00	30.268 
06:05	31.8	31.8	31.8	69	22.8	0	1	270	0.00	30.268 
06:10	31.5	31.5	31.5	69	22.5	0	1	270	0.00	30.268 
06:15	31.3	31.3	31.3	70	22.7	0	1	270	0.00	30.279 
06:20	31.2	31.2	31.2	70	22.6	0	1	270	0.00	30.279 
06:25	31.0	31.0	31.0	70	22.4	0	0	---	0.00	30.279 
06:30	30.9	30.9	30.9	70	22.3	0	0	---	0.00	30.286 
06:35	30.7	30.7	30.7	70	22.1	0	1	270	0.00	30.286 
06:40	30.7	30.7	30.7	70	22.1	0	0	---	0.00	30.286 
06:45	30.6	30.6	30.6	70	22.0	0	0	---	0.00	30.289 
06:50	30.6	30.6	30.6	70	22.0	0	0	---	0.00	30.289 
06:55	30.3	30.3	30.3	71	22.0	0	0	---	0.00	30.289 
07:00	30.1	30.1	30.1	72	22.2	0	0	---	0.00	30.295 
07:05	30.0	30.0	30.0	72	22.1	0	0	---	0.00	30.295 
07:10	29.7	29.7	29.7	73	22.1	0	1	270	0.00	30.295 
07:15	29.5	29.5	29.5	74	22.3	0	0	---	0.00	30.306 
07:20	29.4	29.4	29.4	75	22.5	0	0	---	0.00	30.306 
07:25	29.3	29.3	29.3	75	22.4	0	0	---	0.00	30.306 
07:30	29.1	29.1	29.1	75	22.2	0	0	---	0.00	30.308 
07:35	29.0	29.0	29.0	76	22.4	0	0	---	0.00	30.308 
07:40	28.8	28.8	28.8	77	22.5	0	0	---	0.00	30.308 
07:45	28.7	28.7	28.7	77	22.4	0	0	---	0.00	30.311 
07:50	28.7	28.7	28.7	78	22.7	0	0	---	0.00	30.311 
07:55	28.5	28.5	28.5	78	22.5	0	0	---	0.00	30.311 
08:00	28.5	28.5	28.5	79	22.8	0	0	---	0.00	30.322 
08:05	28.5	28.5	28.5	79	22.8	0	0	---	0.00	30.322 
08:10	28.5	28.5	28.5	80	23.1	0	0	---	0.00	30.322 
08:15	28.7	28.7	28.7	80	23.3	0	1	270	0.00	30.323 
08:20	28.8	28.8	28.8	79	23.1	0	0	---	0.00	30.323 
08:25	29.1	29.1	29.1	78	23.1	0	0	---	0.00	30.323 
08:30	29.3	29.3	29.3	78	23.3	0	0	---	0.00	30.313 
08:35	29.4	29.4	29.4	77	23.1	0	0	---	0.00	30.313 
08:40	29.4	29.4	29.4	77	23.1	0	0	---	0.00	30.313 
08:45	29.4	29.4	29.4	77	23.1	0	0	---	0.00	30.306 
08:50	29.5	29.5	29.5	77	23.2	0	0	---	0.00	30.306 
08:55	29.5	29.5	29.5	78	23.5	0	0	---	0.00	30.306 
09:00	29.7	29.7	29.7	78	23.7	0	0	---	0.00	30.310 
09:05	29.8	29.8	29.8	78	23.8	0	0	---	0.00	30.310 
09:10	30.0	30.0	30.0	78	24.0	0	0	---	0.00	30.310 
09:15	30.3	30.3	30.3	78	24.3	0	0	---	0.00	30.317 
09:20	30.4	30.4	30.4	77	24.1	0	0	---	0.00	30.317 
09:25	30.7	30.7	30.7	76	24.0	0	1	248	0.00	30.317 
09:30	31.0	31.0	31.0	75	24.0	0	0	---	0.00	30.321 
09:35	31.2	31.2	31.2	74	23.9	0	1	248	0.00	30.321 
09:40	31.3	31.3	31.3	73	23.7	0	1	248	0.00	30.321 
09:45	31.6	31.6	31.6	72	23.6	0	1	248	0.00	30.334 
09:50	31.8	31.8	31.8	71	23.5	0	2	248	0.00	30.334 
09:55	32.1	32.1	32.1	71	23.8	0	2	248	0.00	30.334 
10:00	32.2	32.2	32.2	70	23.5	0	1	248	0.00	30.337 
10:05	32.4	32.4	32.4	69	23.4	0	1	248	0.00	30.337 
10:10	32.5	32.5	32.5	69	23.5	0	0	---	0.00	30.337 
10:15	32.7	32.7	32.7	69	23.7	0	1	202	0.00	30.345 
10:20	32.9	32.9	32.9	69	23.9	0	0	---	0.00	30.345 
10:25	33.1	33.1	33.1	69	24.1	0	1	292	0.00	30.345 
10:30	33.2	33.2	33.2	68	23.8	0	1	292	0.00	30.360 
10:35	33.4	33.4	33.4	67	23.6	0	1	292	0.00	30.360 
10:40	33.4	33.4	33.4	66	23.3	0	1	292	0.00	30.360 
10:45	33.5	33.5	33.5	67	23.7	0	0	---	0.00	30.367 
10:50	33.7	33.7	33.7	66	23.6	0	1	292	0.00	30.367 
10:55	33.8	33.8	33.8	65	23.3	0	1	292	0.00	30.367 
11:00	33.7	33.7	33.7	64	22.8	0	2	292	0.00	30.371 
11:05	33.8	33.8	33.8	63	22.6	0	1	292	0.00	30.371 
11:10	33.8	33.8	33.8	64	22.9	0	2	270	0.00	30.371 
11:15	34.0	34.0	34.0	63	22.7	0	2	270	0.00	30.370 
11:20	34.0	34.0	34.0	63	22.7	0	2	270	0.00	30.370 
11:25	34.1	34.1	34.1	64	23.2	0	2	270	0.00	30.370 
11:30	34.1	34.1	34.1	63	22.8	0	1	270	0.00	30.366 
11:35	34.1	34.1	34.1	64	23.2	1	2	270	0.00	30.366 
11:40	34.0	34.0	34.0	63	22.7	1	3	270	0.00	30.366 
11:45	34.0	34.0	34.0	64	23.1	1	4	270	0.00	30.358 
11:50	33.8	33.8	33.8	66	23.7	1	4	248	0.00	30.358 
11:55	33.8	33.8	33.8	66	23.7	1	3	248	0.00	30.358 
12:00	33.7	33.7	33.7	65	23.2	1	3	248	0.00	30.359 
12:05	33.7	33.7	33.7	65	23.2	1	3	248	0.00	30.359 
12:10	33.7	33.7	33.7	65	23.2	1	3	248	0.00	30.359 
12:15	33.8	33.8	33.8	65	23.3	1	2	248	0.00	30.345 
12:20	33.8	33.8	33.8	65	23.3	1	3	248	0.00	30.345 
12:25	34.0	34.0	34.0	65	23.5	1	4	248	0.00	30.345 
12:30	34.1	34.1	34.1	65	23.6	0	2	248	0.00	30.340 
12:35	34.3	34.3	34.3	64	23.4	1	3	338	0.00	30.340 
12:40	34.3	34.3	34.3	63	23.0	2	3	315	0.00	30.340 
12:45	34.4	34.4	34.4	63	23.1	1	4	248	0.00	30.334 
12:50	34.7	34.7	34.7	64	23.8	1	4	248	0.00	30.334 
12:55	34.6	34.6	34.6	62	22.9	1	4	248	0.00	30.334 
13:00	34.4	34.4	34.4	62	22.7	1	4	248	0.00	30.322 
13:05	34.4	34.4	34.4	63	23.1	2	4	270	0.00	30.322 
13:10	34.1	34.1	34.1	64	23.2	2	6	270	0.00	30.322 
13:15	34.0	34.0	34.0	64	23.1	2	4	270	0.00	30.321 
13:20	34.0	34.0	34.0	65	23.5	1	3	292	0.00	30.321 
13:25	33.8	33.8	33.8	65	23.3	2	4	270	0.00	30.321 
13:30	33.7	33.7	33.7	65	23.2	2	4	315	0.00	30.313 
13:35	33.7	33.7	33.7	65	23.2	2	4	270	0.00	30.313 
13:40	33.5	33.5	33.5	65	23.0	2	4	270	0.00	30.313 
13:45	33.7	33.7	33.7	66	23.6	1	3	248	0.00	30.304 
13:50	33.7	33.7	33.7	66	23.6	1	3	248	0.00	30.304 
13:55	33.7	33.7	33.7	66	23.6	1	3	248	0.00	30.304 
14:00	33.8	33.8	33.8	66	23.7	1	4	248	0.00	30.305 
14:05	33.7	33.7	33.7	65	23.2	2	6	248	0.00	30.305 
14:10	33.7	33.7	33.7	66	23.6	2	4	248	0.00	30.305 
14:15	33.5	33.5	33.5	65	23.0	2	5	270	0.00	30.305 
14:20	33.4	33.4	33.4	65	22.9	2	5	248	0.00	30.305 
14:25	33.5	33.5	33.5	67	23.7	1	3	292	0.00	30.305 
14:30	33.5	33.5	33.5	66	23.4	2	4	270	0.00	30.307 
14:35	33.7	33.7	33.7	67	23.9	1	3	338	0.00	30.307 
14:40	33.5	33.5	33.5	66	23.4	2	4	270	0.00	30.307 
14:45	33.5	33.5	33.5	67	23.7	2	4	292	0.00	30.304 
14:50	33.2	33.2	33.2	67	23.4	1	3	315	0.00	30.304 
14:55	33.2	33.2	33.2	68	23.8	2	4	292	0.00	30.304 
15:00	33.1	33.1	33.1	68	23.7	2	3	292	0.00	30.300 
15:05	33.1	33.1	33.1	68	23.7	1	4	292	0.00	30.300 
15:10	33.1	33.1	33.1	69	24.1	1	3	292	0.00	30.300 
15:15	33.1	33.1	33.1	68	23.7	2	4	270	0.00	30.294 
15:20	32.9	32.9	32.9	68	23.5	1	4	248	0.00	30.294 
15:25	32.9	32.9	32.9	68	23.5	1	3	315	0.00	30.294 
15:30	32.9	32.9	32.9	68	23.5	1	3	315	0.00	30.290 
15:35	32.9	32.9	32.9	68	23.5	1	4	248	0.00	30.290 
15:40	33.1	33.1	33.1	69	24.1	0	2	248	0.00	30.290 
15:45	33.1	33.1	33.1	69	24.1	1	2	248	0.00	30.291 
15:50	33.1	33.1	33.1	68	23.7	2	5	270	0.00	30.291 
15:55	33.1	33.1	33.1	68	23.7	1	4	315	0.00	30.291 
16:00	33.1	33.1	33.1	68	23.7	2	4	315	0.00	30.300 
16:05	32.9	32.9	32.9	68	23.5	1	3	292	0.00	30.300 
16:10	32.9	32.9	32.9	69	23.9	1	3	315	0.00	30.300 
16:15	32.9	32.9	32.9	69	23.9	1	3	292	0.00	30.305 
16:20	32.9	32.9	32.9	69	23.9	1	3	315	0.00	30.305 
16:25	32.9	32.9	32.9	69	23.9	1	4	338	0.00	30.305 
16:30	32.9	32.9	32.9	69	23.9	1	3	338	0.00	30.305 
16:35	32.9	32.9	32.9	69	23.9	1	3	338	0.00	30.305 
16:40	32.9	32.9	32.9	69	23.9	1	4	270	0.00	30.305 
16:45	32.8	32.8	32.8	68	23.4	1	4	315	0.00	30.300 
16:50	32.8	32.8	32.8	67	23.1	2	6	338	0.00	30.300 
16:55	32.8	32.8	32.8	67	23.1	1	3	270	0.00	30.300 
17:00	32.8	32.8	32.8	67	23.1	1	2	338	0.00	30.304 
17:05	32.7	32.7	32.7	67	23.0	1	3	338	0.00	30.304 
17:10	32.7	32.7	32.7	67	23.0	1	3	292	0.00	30.304 
17:15	32.7	32.7	32.7	67	23.0	1	3	292	0.00	30.304 
17:20	32.7	32.7	32.7	67	23.0	1	2	315	0.00	30.304 
17:25	32.7	32.7	32.7	67	23.0	0	2	315	0.00	30.304 
17:30	32.7	32.7	32.7	67	23.0	1	3	315	0.00	30.310 
17:35	32.7	32.7	32.7	67	23.0	0	2	315	0.00	30.310 
17:40	32.7	32.7	32.7	67	23.0	1	2	315	0.00	30.310 
17:45	32.7	32.7	32.7	67	23.0	0	3	338	0.00	30.313 
17:50	32.7	32.7	32.7	67	23.0	1	3	338	0.00	30.313 
17:55	32.7	32.7	32.7	68	23.3	0	3	338	0.00	30.313 
18:00	32.5	32.5	32.5	66	22.4	1	3	270	0.00	30.317 
18:05	32.7	32.7	32.7	66	22.6	1	4	270	0.00	30.317 
18:10	32.7	32.7	32.7	66	22.6	1	3	315	0.00	30.317 
18:15	32.7	32.7	32.7	66	22.6	2	4	292	0.00	30.324 
18:20	32.7	32.7	32.7	66	22.6	1	3	292	0.00	30.324 
18:25	32.7	32.7	32.7	66	22.6	1	3	292	0.00	30.324 
18:30	32.7	32.7	32.7	66	22.6	1	4	338	0.00	30.325 
18:35	32.7	32.7	32.7	66	22.6	1	5	22	0.00	30.325 
18:40	32.7	32.7	32.7	66	22.6	2	3	292	0.00	30.325 
18:45	32.7	32.7	32.7	67	23.0	0	2	292	0.00	30.324 
18:50	32.5	32.5	32.5	67	22.8	0	2	292	0.00	30.324 
18:55	32.5	32.5	32.5	67	22.8	0	1	292	0.00	30.324 
19:00	32.5	32.5	32.5	67	22.8	0	2	292	0.00	30.325 
19:05	32.5	32.5	32.5	67	22.8	1	3	292	0.00	30.325 
19:10	32.5	32.5	32.5	67	22.8	1	2	292	0.00	30.325 
19:15	32.5	32.5	32.5	66	22.4	0	2	292	0.00	30.327 
19:20	32.5	32.5	32.5	66	22.4	0	2	292	0.00	30.327 
19:25	32.5	32.5	32.5	67	22.8	0	2	292	0.00	30.327 
19:30	32.4	32.4	32.4	67	22.7	0	1	292	0.00	30.331 
19:35	32.4	32.4	32.4	67	22.7	0	2	292	0.00	30.331 
19:40	32.4	32.4	32.4	66	22.3	0	2	292	0.00	30.331 
19:45	32.4	32.4	32.4	66	22.3	0	3	292	0.00	30.330 
19:50	32.4	32.4	32.4	66	22.3	0	2	292	0.00	30.330 
19:55	32.4	32.4	32.4	67	22.7	0	1	292	0.00	30.330 
20:00	32.4	32.4	32.4	68	23.0	0	1	292	0.00	30.336 
20:05	32.4	32.4	32.4	67	22.7	0	2	292	0.00	30.336 
20:10	32.4	32.4	32.4	67	22.7	1	3	292	0.00	30.336 
20:15	32.4	32.4	32.4	66	22.3	1	3	292	0.00	30.332 
20:20	32.4	32.4	32.4	66	22.3	1	2	292	0.00	30.332 
20:25	32.4	32.4	32.4	67	22.7	0	1	292	0.00	30.332 
20:30	32.4	32.4	32.4	67	22.7	0	1	292	0.00	30.329 
20:35	32.4	32.4	32.4	68	23.0	0	1	292	0.00	30.329 
20:40	32.4	32.4	32.4	68	23.0	0	2	292	0.00	30.329 
20:45	32.4	32.4	32.4	68	23.0	0	2	292	0.00	30.326 
20:50	32.4	32.4	32.4	68	23.0	0	1	292	0.00	30.326 
20:55	32.4	32.4	32.4	68	23.0	0	1	292	0.00	30.326 
21:00	32.4	32.4	32.4	67	22.7	0	2	292	0.00	30.330 
21:05	32.4	32.4	32.4	67	22.7	0	2	315	0.00	30.330 
21:10	32.4	32.4	32.4	67	22.7	0	2	315	0.00	30.330 
21:15	32.4	32.4	32.4	66	22.3	0	2	315	0.00	30.324 
21:20	32.4	32.4	32.4	65	22.0	0	3	315	0.00	30.324 
21:25	32.4	32.4	32.4	65	22.0	0	1	315	0.00	30.324 
21:30	32.4	32.4	32.4	64	21.6	0	2	315	0.00	30.325 
21:35	32.4	32.4	32.4	64	21.6	1	2	315	0.00	30.325 
21:40	32.4	32.4	32.4	64	21.6	1	3	315	0.00	30.325 
21:45	32.4	32.4	32.4	65	22.0	0	1	315	0.00	30.333 
21:50	32.4	32.4	32.4	66	22.3	0	1	315	0.00	30.333 
21:55	32.4	32.4	32.4	66	22.3	0	1	315	0.00	30.333 
22:00	32.4	32.4	32.4	66	22.3	0	1	315	0.00	30.333 
22:05	32.2	32.2	32.2	67	22.5	0	1	315	0.00	30.333 
22:10	32.2	32.2	32.2	68	22.8	0	1	315	0.00	30.333 
22:15	32.2	32.2	32.2	68	22.8	0	1	315	0.00	30.329 
22:20	32.2	32.2	32.2	68	22.8	0	1	315	0.00	30.329 
22:25	32.2	32.2	32.2	68	22.8	0	2	315	0.00	30.329 
22:30	32.2	32.2	32.2	67	22.5	0	2	315	0.00	30.325 
22:35	32.2	32.2	32.2	67	22.5	0	1	315	0.00	30.325 
22:40	32.2	32.2	32.2	68	22.8	0	1	315	0.00	30.325 
22:45	32.1	32.1	32.1	68	22.7	0	1	315	0.00	30.323 
22:50	32.1	32.1	32.1	67	22.4	0	1	315	0.00	30.323 
22:55	32.1	32.1	32.1	67	22.4	0	1	315	0.00	30.323 
23:00	32.2	32.2	32.2	66	22.1	0	1	315	0.00	30.322 
23:05	32.2	32.2	32.2	66	22.1	0	2	315	0.00	30.322 
23:10	32.2	32.2	32.2	66	22.1	0	1	315	0.00	30.322 
23:15	32.2	32.2	32.2	66	22.1	0	1	315	0.00	30.322 
23:20	32.2	32.2	32.2	66	22.1	0	1	315	0.00	30.322 
23:25	32.2	32.2	32.2	66	22.1	0	1	315	0.00	30.322 
23:30	32.2	32.2	32.2	67	22.5	0	1	315	0.00	30.326 
23:35	32.2	32.2	32.2	67	22.5	0	2	315	0.00	30.326 
23:40	32.2	32.2	32.2	68	22.8	0	1	315	0.00	30.326 
23:45	32.1	32.1	32.1	68	22.7	0	2	315	0.00	30.323 
23:50	32.1	32.1	32.1	69	23.1	0	2	315	0.00	30.323 
23:55	32.1	32.1	32.1	69	23.1	0	1	315	0.00	30.323 

CoCoRaHS
IN-AL-39
A2 Web Hosting
Creative Commons License
GoDaddy
search engine by freefind advanced

loaded 2018-11-21 01:23:42 • last modified 2010-11-18 10:43:29
Privacy PolicyDisclaimer
• wx.awcolley.com is powered by PmWiki v.2002016 •
• all content (unless otherwise noted) © 2018 A W Colley